sensor_id;sensor_type;location;lat;lon;timestamp;temperature;humidity
27890;DHT22;15238;49.082;9.102;2023-12-14T00:00:42;6.70;99.90
27890;DHT22;15238;49.082;9.102;2023-12-14T00:02:43;6.80;99.90
27890;DHT22;15238;49.082;9.102;2023-12-14T00:04:43;6.70;99.90
27890;DHT22;15238;49.082;9.102;2023-12-14T00:06:44;6.80;99.90
27890;DHT22;15238;49.082;9.102;2023-12-14T00:08:44;6.80;99.90
27890;DHT22;15238;49.082;9.102;2023-12-14T00:10:45;6.80;99.90
27890;DHT22;15238;49.082;9.102;2023-12-14T00:12:45;6.80;99.90
27890;DHT22;15238;49.082;9.102;2023-12-14T00:14:46;6.80;99.90
27890;DHT22;15238;49.082;9.102;2023-12-14T00:16:46;6.80;99.90
27890;DHT22;15238;49.082;9.102;2023-12-14T00:18:47;6.80;99.90
27890;DHT22;15238;49.082;9.102;2023-12-14T00:20:47;6.90;99.90
27890;DHT22;15238;49.082;9.102;2023-12-14T00:22:48;6.80;99.90
27890;DHT22;15238;49.082;9.102;2023-12-14T00:24:49;6.80;99.90
27890;DHT22;15238;49.082;9.102;2023-12-14T00:26:49;6.80;99.90
27890;DHT22;15238;49.082;9.102;2023-12-14T00:28:50;6.90;99.90
27890;DHT22;15238;49.082;9.102;2023-12-14T00:30:50;6.90;99.90
27890;DHT22;15238;49.082;9.102;2023-12-14T00:32:51;6.90;99.90
27890;DHT22;15238;49.082;9.102;2023-12-14T00:34:51;6.90;99.90
27890;DHT22;15238;49.082;9.102;2023-12-14T00:36:52;6.80;99.90
27890;DHT22;15238;49.082;9.102;2023-12-14T00:38:52;6.90;99.90
27890;DHT22;15238;49.082;9.102;2023-12-14T00:40:53;6.90;99.90
27890;DHT22;15238;49.082;9.102;2023-12-14T00:42:53;6.90;99.90
27890;DHT22;15238;49.082;9.102;2023-12-14T00:44:54;6.90;99.90
27890;DHT22;15238;49.082;9.102;2023-12-14T00:46:54;6.90;99.90
27890;DHT22;15238;49.082;9.102;2023-12-14T00:48:54;6.90;99.90
27890;DHT22;15238;49.082;9.102;2023-12-14T00:50:55;6.90;99.90
27890;DHT22;15238;49.082;9.102;2023-12-14T00:52:55;6.90;99.90
27890;DHT22;15238;49.082;9.102;2023-12-14T00:54:56;6.90;99.90
27890;DHT22;15238;49.082;9.102;2023-12-14T00:56:56;6.90;99.90
27890;DHT22;15238;49.082;9.102;2023-12-14T00:58:57;6.90;99.90
27890;DHT22;15238;49.082;9.102;2023-12-14T01:00:57;6.90;99.90
27890;DHT22;15238;49.082;9.102;2023-12-14T01:02:58;6.90;99.90
27890;DHT22;15238;49.082;9.102;2023-12-14T01:04:58;7.00;99.90
27890;DHT22;15238;49.082;9.102;2023-12-14T01:06:59;7.00;99.90
27890;DHT22;15238;49.082;9.102;2023-12-14T01:08:59;7.00;99.90
27890;DHT22;15238;49.082;9.102;2023-12-14T01:11:00;7.00;99.90
27890;DHT22;15238;49.082;9.102;2023-12-14T01:13:00;7.00;99.90
27890;DHT22;15238;49.082;9.102;2023-12-14T01:15:01;7.00;99.90
27890;DHT22;15238;49.082;9.102;2023-12-14T01:17:01;7.00;99.90
27890;DHT22;15238;49.082;9.102;2023-12-14T01:19:02;6.90;99.90
27890;DHT22;15238;49.082;9.102;2023-12-14T01:21:03;6.90;99.90
27890;DHT22;15238;49.082;9.102;2023-12-14T01:23:03;6.90;99.90
27890;DHT22;15238;49.082;9.102;2023-12-14T01:25:04;6.90;99.90
27890;DHT22;15238;49.082;9.102;2023-12-14T01:27:05;6.90;99.90
27890;DHT22;15238;49.082;9.102;2023-12-14T01:29:05;6.90;99.90
27890;DHT22;15238;49.082;9.102;2023-12-14T01:31:06;6.90;99.90
27890;DHT22;15238;49.082;9.102;2023-12-14T01:33:06;6.90;99.90
27890;DHT22;15238;49.082;9.102;2023-12-14T01:35:07;6.90;99.90
27890;DHT22;15238;49.082;9.102;2023-12-14T01:37:07;7.00;99.90
27890;DHT22;15238;49.082;9.102;2023-12-14T01:39:08;6.90;99.90
27890;DHT22;15238;49.082;9.102;2023-12-14T01:41:08;6.90;99.90
27890;DHT22;15238;49.082;9.102;2023-12-14T01:43:09;6.90;99.90
27890;DHT22;15238;49.082;9.102;2023-12-14T01:45:13;6.90;99.90
27890;DHT22;15238;49.082;9.102;2023-12-14T01:47:16;6.90;99.90
27890;DHT22;15238;49.082;9.102;2023-12-14T01:49:17;6.90;99.90
27890;DHT22;15238;49.082;9.102;2023-12-14T01:51:18;6.90;99.90
27890;DHT22;15238;49.082;9.102;2023-12-14T01:53:19;6.90;99.90
27890;DHT22;15238;49.082;9.102;2023-12-14T01:55:20;6.90;99.90
27890;DHT22;15238;49.082;9.102;2023-12-14T01:57:20;6.90;99.90
27890;DHT22;15238;49.082;9.102;2023-12-14T01:59:21;6.90;99.90
27890;DHT22;15238;49.082;9.102;2023-12-14T02:01:37;6.90;99.90
27890;DHT22;15238;49.082;9.102;2023-12-14T02:03:44;7.00;99.90
27890;DHT22;15238;49.082;9.102;2023-12-14T02:05:45;7.00;99.90
27890;DHT22;15238;49.082;9.102;2023-12-14T02:07:45;7.00;99.90
27890;DHT22;15238;49.082;9.102;2023-12-14T02:09:46;7.00;99.90
27890;DHT22;15238;49.082;9.102;2023-12-14T02:11:46;7.00;99.90
27890;DHT22;15238;49.082;9.102;2023-12-14T02:13:47;7.00;99.90
27890;DHT22;15238;49.082;9.102;2023-12-14T02:15:47;7.00;99.90
27890;DHT22;15238;49.082;9.102;2023-12-14T02:17:48;7.00;99.90
27890;DHT22;15238;49.082;9.102;2023-12-14T02:19:48;7.10;99.90
27890;DHT22;15238;49.082;9.102;2023-12-14T02:21:49;7.10;99.90
27890;DHT22;15238;49.082;9.102;2023-12-14T02:23:49;7.10;99.90
27890;DHT22;15238;49.082;9.102;2023-12-14T02:25:50;7.10;99.90
27890;DHT22;15238;49.082;9.102;2023-12-14T02:27:51;7.00;99.90
27890;DHT22;15238;49.082;9.102;2023-12-14T02:29:51;7.00;99.90
27890;DHT22;15238;49.082;9.102;2023-12-14T02:31:52;7.10;99.90
27890;DHT22;15238;49.082;9.102;2023-12-14T02:33:52;7.10;99.90
27890;DHT22;15238;49.082;9.102;2023-12-14T02:35:53;7.10;99.90
27890;DHT22;15238;49.082;9.102;2023-12-14T02:37:53;7.10;99.90
27890;DHT22;15238;49.082;9.102;2023-12-14T02:39:54;7.10;99.90
27890;DHT22;15238;49.082;9.102;2023-12-14T02:41:54;7.10;99.90
27890;DHT22;15238;49.082;9.102;2023-12-14T02:43:55;7.10;99.90
27890;DHT22;15238;49.082;9.102;2023-12-14T02:45:55;7.10;99.90
27890;DHT22;15238;49.082;9.102;2023-12-14T02:48:02;7.10;99.90
27890;DHT22;15238;49.082;9.102;2023-12-14T02:50:02;7.10;99.90
27890;DHT22;15238;49.082;9.102;2023-12-14T02:52:03;7.10;99.90
27890;DHT22;15238;49.082;9.102;2023-12-14T02:54:04;7.10;99.90
27890;DHT22;15238;49.082;9.102;2023-12-14T02:56:04;7.10;99.90
27890;DHT22;15238;49.082;9.102;2023-12-14T02:58:05;7.20;99.90
27890;DHT22;15238;49.082;9.102;2023-12-14T03:00:06;7.10;99.90
27890;DHT22;15238;49.082;9.102;2023-12-14T03:02:07;7.10;99.90
27890;DHT22;15238;49.082;9.102;2023-12-14T03:04:08;7.10;99.90
27890;DHT22;15238;49.082;9.102;2023-12-14T03:06:08;7.10;99.90
27890;DHT22;15238;49.082;9.102;2023-12-14T03:08:09;7.10;99.90
27890;DHT22;15238;49.082;9.102;2023-12-14T03:10:09;7.10;99.90
27890;DHT22;15238;49.082;9.102;2023-12-14T03:12:10;7.10;99.90
27890;DHT22;15238;49.082;9.102;2023-12-14T03:14:11;7.10;99.90
27890;DHT22;15238;49.082;9.102;2023-12-14T03:16:11;7.10;99.90
27890;DHT22;15238;49.082;9.102;2023-12-14T03:18:12;7.10;99.90
27890;DHT22;15238;49.082;9.102;2023-12-14T03:20:13;7.10;99.90
27890;DHT22;15238;49.082;9.102;2023-12-14T03:22:14;7.10;99.90
27890;DHT22;15238;49.082;9.102;2023-12-14T03:24:15;7.10;99.90
27890;DHT22;15238;49.082;9.102;2023-12-14T03:26:15;7.10;99.90
27890;DHT22;15238;49.082;9.102;2023-12-14T03:28:16;7.10;99.90
27890;DHT22;15238;49.082;9.102;2023-12-14T03:30:17;7.10;99.90
27890;DHT22;15238;49.082;9.102;2023-12-14T03:32:18;7.10;99.90
27890;DHT22;15238;49.082;9.102;2023-12-14T03:34:18;7.10;99.90
27890;DHT22;15238;49.082;9.102;2023-12-14T03:36:19;7.10;99.90
27890;DHT22;15238;49.082;9.102;2023-12-14T03:38:19;7.10;99.90
27890;DHT22;15238;49.082;9.102;2023-12-14T03:40:20;7.10;99.90
27890;DHT22;15238;49.082;9.102;2023-12-14T03:42:20;7.10;99.90
27890;DHT22;15238;49.082;9.102;2023-12-14T03:44:21;7.10;99.90
27890;DHT22;15238;49.082;9.102;2023-12-14T03:46:24;7.10;99.90
27890;DHT22;15238;49.082;9.102;2023-12-14T03:48:25;7.10;99.90
27890;DHT22;15238;49.082;9.102;2023-12-14T03:50:25;7.10;99.90
27890;DHT22;15238;49.082;9.102;2023-12-14T03:52:26;7.10;99.90
27890;DHT22;15238;49.082;9.102;2023-12-14T03:54:28;7.10;99.90
27890;DHT22;15238;49.082;9.102;2023-12-14T03:56:28;7.10;99.90
27890;DHT22;15238;49.082;9.102;2023-12-14T03:58:29;7.10;99.90
27890;DHT22;15238;49.082;9.102;2023-12-14T04:00:29;7.10;99.90
27890;DHT22;15238;49.082;9.102;2023-12-14T04:02:30;7.20;99.90
27890;DHT22;15238;49.082;9.102;2023-12-14T04:04:30;7.20;99.90
27890;DHT22;15238;49.082;9.102;2023-12-14T04:06:31;7.20;99.90
27890;DHT22;15238;49.082;9.102;2023-12-14T04:08:31;7.10;99.90
27890;DHT22;15238;49.082;9.102;2023-12-14T04:10:32;7.20;99.90
27890;DHT22;15238;49.082;9.102;2023-12-14T04:12:33;7.20;99.90
27890;DHT22;15238;49.082;9.102;2023-12-14T04:14:33;7.20;99.90
27890;DHT22;15238;49.082;9.102;2023-12-14T04:16:33;7.20;99.90
27890;DHT22;15238;49.082;9.102;2023-12-14T04:18:34;7.10;99.90
27890;DHT22;15238;49.082;9.102;2023-12-14T04:20:35;7.10;99.90
27890;DHT22;15238;49.082;9.102;2023-12-14T04:22:35;7.10;99.90
27890;DHT22;15238;49.082;9.102;2023-12-14T04:24:36;7.20;99.90
27890;DHT22;15238;49.082;9.102;2023-12-14T04:26:36;7.20;99.90
27890;DHT22;15238;49.082;9.102;2023-12-14T04:28:37;7.10;99.90
27890;DHT22;15238;49.082;9.102;2023-12-14T04:30:37;7.10;99.90
27890;DHT22;15238;49.082;9.102;2023-12-14T04:32:38;7.10;99.90
27890;DHT22;15238;49.082;9.102;2023-12-14T04:34:39;7.10;99.90
27890;DHT22;15238;49.082;9.102;2023-12-14T04:36:39;7.20;99.90
27890;DHT22;15238;49.082;9.102;2023-12-14T04:38:39;7.20;99.90
27890;DHT22;15238;49.082;9.102;2023-12-14T04:40:40;7.20;99.90
27890;DHT22;15238;49.082;9.102;2023-12-14T04:42:40;7.20;99.90
27890;DHT22;15238;49.082;9.102;2023-12-14T04:44:41;7.20;99.90
27890;DHT22;15238;49.082;9.102;2023-12-14T04:46:41;7.20;99.90
27890;DHT22;15238;49.082;9.102;2023-12-14T04:48:42;7.20;99.90
27890;DHT22;15238;49.082;9.102;2023-12-14T04:50:43;7.20;99.90
27890;DHT22;15238;49.082;9.102;2023-12-14T04:52:44;7.30;99.90
27890;DHT22;15238;49.082;9.102;2023-12-14T04:54:44;7.20;99.90
27890;DHT22;15238;49.082;9.102;2023-12-14T04:56:46;7.20;99.90
27890;DHT22;15238;49.082;9.102;2023-12-14T04:58:46;7.20;99.90
27890;DHT22;15238;49.082;9.102;2023-12-14T05:00:47;7.20;99.90
27890;DHT22;15238;49.082;9.102;2023-12-14T05:02:47;7.20;99.90
27890;DHT22;15238;49.082;9.102;2023-12-14T05:04:48;7.20;99.90
27890;DHT22;15238;49.082;9.102;2023-12-14T05:06:49;7.20;99.90
27890;DHT22;15238;49.082;9.102;2023-12-14T05:08:49;7.20;99.90
27890;DHT22;15238;49.082;9.102;2023-12-14T05:10:50;7.20;99.90
27890;DHT22;15238;49.082;9.102;2023-12-14T05:12:50;7.20;99.90
27890;DHT22;15238;49.082;9.102;2023-12-14T05:14:52;7.20;99.90
27890;DHT22;15238;49.082;9.102;2023-12-14T05:16:52;7.20;99.90
27890;DHT22;15238;49.082;9.102;2023-12-14T05:18:53;7.30;99.90
27890;DHT22;15238;49.082;9.102;2023-12-14T05:20:54;7.30;99.90
27890;DHT22;15238;49.082;9.102;2023-12-14T05:22:55;7.30;99.90
27890;DHT22;15238;49.082;9.102;2023-12-14T05:24:56;7.30;99.90
27890;DHT22;15238;49.082;9.102;2023-12-14T05:26:56;7.30;99.90
27890;DHT22;15238;49.082;9.102;2023-12-14T05:28:57;7.20;99.90
27890;DHT22;15238;49.082;9.102;2023-12-14T05:30:57;7.30;99.90
27890;DHT22;15238;49.082;9.102;2023-12-14T05:32:58;7.30;99.90
27890;DHT22;15238;49.082;9.102;2023-12-14T05:34:58;7.30;99.90
27890;DHT22;15238;49.082;9.102;2023-12-14T05:36:59;7.20;99.90
27890;DHT22;15238;49.082;9.102;2023-12-14T05:39:00;7.20;99.90
27890;DHT22;15238;49.082;9.102;2023-12-14T05:41:00;7.20;99.90
27890;DHT22;15238;49.082;9.102;2023-12-14T05:43:01;7.20;99.90
27890;DHT22;15238;49.082;9.102;2023-12-14T05:45:01;7.20;99.90
27890;DHT22;15238;49.082;9.102;2023-12-14T05:47:02;7.20;99.90
27890;DHT22;15238;49.082;9.102;2023-12-14T05:49:03;7.20;99.90
27890;DHT22;15238;49.082;9.102;2023-12-14T05:51:03;7.20;99.90
27890;DHT22;15238;49.082;9.102;2023-12-14T05:53:04;7.20;99.90
27890;DHT22;15238;49.082;9.102;2023-12-14T05:55:06;7.20;99.90
27890;DHT22;15238;49.082;9.102;2023-12-14T05:57:07;7.10;99.90
27890;DHT22;15238;49.082;9.102;2023-12-14T05:59:08;7.10;99.90
27890;DHT22;15238;49.082;9.102;2023-12-14T06:01:08;7.10;99.90
27890;DHT22;15238;49.082;9.102;2023-12-14T06:03:09;7.10;99.90
27890;DHT22;15238;49.082;9.102;2023-12-14T06:05:09;7.10;99.90
27890;DHT22;15238;49.082;9.102;2023-12-14T06:07:10;7.00;99.90
27890;DHT22;15238;49.082;9.102;2023-12-14T06:09:10;7.00;99.90
27890;DHT22;15238;49.082;9.102;2023-12-14T06:11:11;7.00;99.90
27890;DHT22;15238;49.082;9.102;2023-12-14T06:13:11;7.00;99.90
27890;DHT22;15238;49.082;9.102;2023-12-14T06:15:12;6.90;99.90
27890;DHT22;15238;49.082;9.102;2023-12-14T06:17:12;6.90;99.90
27890;DHT22;15238;49.082;9.102;2023-12-14T06:19:13;6.90;99.90
27890;DHT22;15238;49.082;9.102;2023-12-14T06:21:13;6.90;99.90
27890;DHT22;15238;49.082;9.102;2023-12-14T06:23:14;6.90;99.90
27890;DHT22;15238;49.082;9.102;2023-12-14T06:25:15;6.90;99.90
27890;DHT22;15238;49.082;9.102;2023-12-14T06:27:15;6.90;99.90
27890;DHT22;15238;49.082;9.102;2023-12-14T06:29:16;6.90;99.90
27890;DHT22;15238;49.082;9.102;2023-12-14T06:31:17;6.90;99.90
27890;DHT22;15238;49.082;9.102;2023-12-14T06:33:18;6.90;99.90
27890;DHT22;15238;49.082;9.102;2023-12-14T06:35:19;6.90;99.90
27890;DHT22;15238;49.082;9.102;2023-12-14T06:37:19;6.90;99.90
27890;DHT22;15238;49.082;9.102;2023-12-14T06:39:20;6.90;99.90
27890;DHT22;15238;49.082;9.102;2023-12-14T06:41:21;6.90;99.90
27890;DHT22;15238;49.082;9.102;2023-12-14T06:43:22;6.80;99.90
27890;DHT22;15238;49.082;9.102;2023-12-14T06:45:23;6.90;99.90
27890;DHT22;15238;49.082;9.102;2023-12-14T06:47:23;6.80;99.90
27890;DHT22;15238;49.082;9.102;2023-12-14T06:49:25;6.80;99.90
27890;DHT22;15238;49.082;9.102;2023-12-14T06:51:25;6.80;99.90
27890;DHT22;15238;49.082;9.102;2023-12-14T06:53:26;6.70;99.90
27890;DHT22;15238;49.082;9.102;2023-12-14T06:55:26;6.70;99.90
27890;DHT22;15238;49.082;9.102;2023-12-14T06:57:27;6.70;99.90
27890;DHT22;15238;49.082;9.102;2023-12-14T06:59:29;6.80;99.90
27890;DHT22;15238;49.082;9.102;2023-12-14T07:01:29;6.80;99.90
27890;DHT22;15238;49.082;9.102;2023-12-14T07:03:30;6.80;99.90
27890;DHT22;15238;49.082;9.102;2023-12-14T07:05:30;6.80;99.90
27890;DHT22;15238;49.082;9.102;2023-12-14T07:07:32;6.90;99.90
27890;DHT22;15238;49.082;9.102;2023-12-14T07:09:35;6.90;99.90
27890;DHT22;15238;49.082;9.102;2023-12-14T07:11:35;6.90;99.90
27890;DHT22;15238;49.082;9.102;2023-12-14T07:13:36;6.90;99.90
27890;DHT22;15238;49.082;9.102;2023-12-14T07:15:36;7.00;99.90
27890;DHT22;15238;49.082;9.102;2023-12-14T07:17:37;7.00;99.90
27890;DHT22;15238;49.082;9.102;2023-12-14T07:19:37;7.00;99.90
27890;DHT22;15238;49.082;9.102;2023-12-14T07:21:38;7.00;99.90
27890;DHT22;15238;49.082;9.102;2023-12-14T07:23:38;7.00;99.90
27890;DHT22;15238;49.082;9.102;2023-12-14T07:25:39;7.00;99.90
27890;DHT22;15238;49.082;9.102;2023-12-14T07:27:39;7.00;99.90
27890;DHT22;15238;49.082;9.102;2023-12-14T07:29:40;7.00;99.90
27890;DHT22;15238;49.082;9.102;2023-12-14T07:31:40;7.10;99.90
27890;DHT22;15238;49.082;9.102;2023-12-14T07:33:41;7.10;99.90
27890;DHT22;15238;49.082;9.102;2023-12-14T07:35:41;7.10;99.90
27890;DHT22;15238;49.082;9.102;2023-12-14T07:37:42;7.10;99.90
27890;DHT22;15238;49.082;9.102;2023-12-14T07:39:42;7.10;99.90
27890;DHT22;15238;49.082;9.102;2023-12-14T07:41:43;7.00;99.90
27890;DHT22;15238;49.082;9.102;2023-12-14T07:43:43;7.10;99.90
27890;DHT22;15238;49.082;9.102;2023-12-14T07:45:44;7.10;99.90
27890;DHT22;15238;49.082;9.102;2023-12-14T07:47:46;7.10;99.90
27890;DHT22;15238;49.082;9.102;2023-12-14T07:49:47;7.10;99.90
27890;DHT22;15238;49.082;9.102;2023-12-14T07:51:47;7.10;99.90
27890;DHT22;15238;49.082;9.102;2023-12-14T07:53:48;7.20;99.90
27890;DHT22;15238;49.082;9.102;2023-12-14T07:55:48;7.20;99.90
27890;DHT22;15238;49.082;9.102;2023-12-14T07:57:49;7.20;99.90
27890;DHT22;15238;49.082;9.102;2023-12-14T07:59:49;7.20;99.90
27890;DHT22;15238;49.082;9.102;2023-12-14T08:01:50;7.20;99.90
27890;DHT22;15238;49.082;9.102;2023-12-14T08:03:50;7.20;99.90
27890;DHT22;15238;49.082;9.102;2023-12-14T08:05:51;7.30;99.90
27890;DHT22;15238;49.082;9.102;2023-12-14T08:07:51;7.20;99.90
27890;DHT22;15238;49.082;9.102;2023-12-14T08:09:52;7.20;99.90
27890;DHT22;15238;49.082;9.102;2023-12-14T08:11:53;7.30;99.90
27890;DHT22;15238;49.082;9.102;2023-12-14T08:13:53;7.30;99.90
27890;DHT22;15238;49.082;9.102;2023-12-14T08:15:54;7.40;99.90
27890;DHT22;15238;49.082;9.102;2023-12-14T08:17:54;7.50;99.90
27890;DHT22;15238;49.082;9.102;2023-12-14T08:19:55;7.50;99.90
27890;DHT22;15238;49.082;9.102;2023-12-14T08:21:55;7.50;99.90
27890;DHT22;15238;49.082;9.102;2023-12-14T08:23:56;7.50;99.90
27890;DHT22;15238;49.082;9.102;2023-12-14T08:25:57;7.50;99.90
27890;DHT22;15238;49.082;9.102;2023-12-14T08:27:58;7.60;99.90
27890;DHT22;15238;49.082;9.102;2023-12-14T08:29:58;7.60;99.90
27890;DHT22;15238;49.082;9.102;2023-12-14T08:31:59;7.70;99.90
27890;DHT22;15238;49.082;9.102;2023-12-14T08:33:59;7.70;99.90
27890;DHT22;15238;49.082;9.102;2023-12-14T08:36:00;7.70;99.90
27890;DHT22;15238;49.082;9.102;2023-12-14T08:38:00;7.80;99.90
27890;DHT22;15238;49.082;9.102;2023-12-14T08:40:01;7.80;99.90
27890;DHT22;15238;49.082;9.102;2023-12-14T08:42:01;7.90;99.90
27890;DHT22;15238;49.082;9.102;2023-12-14T08:44:02;7.90;99.90
27890;DHT22;15238;49.082;9.102;2023-12-14T08:46:03;7.80;99.90
27890;DHT22;15238;49.082;9.102;2023-12-14T08:48:04;7.80;99.90
27890;DHT22;15238;49.082;9.102;2023-12-14T08:50:05;7.80;99.90
27890;DHT22;15238;49.082;9.102;2023-12-14T08:52:06;7.80;99.90
27890;DHT22;15238;49.082;9.102;2023-12-14T08:54:07;7.90;99.90
27890;DHT22;15238;49.082;9.102;2023-12-14T08:56:08;7.90;99.90
27890;DHT22;15238;49.082;9.102;2023-12-14T08:58:09;7.90;99.90
27890;DHT22;15238;49.082;9.102;2023-12-14T09:00:10;7.90;99.90
27890;DHT22;15238;49.082;9.102;2023-12-14T09:02:11;7.90;99.90
27890;DHT22;15238;49.082;9.102;2023-12-14T09:04:11;7.90;99.90
27890;DHT22;15238;49.082;9.102;2023-12-14T09:06:12;7.90;99.90
27890;DHT22;15238;49.082;9.102;2023-12-14T09:08:12;7.90;99.90
27890;DHT22;15238;49.082;9.102;2023-12-14T09:10:13;7.90;99.90
27890;DHT22;15238;49.082;9.102;2023-12-14T09:12:14;8.00;99.90
27890;DHT22;15238;49.082;9.102;2023-12-14T09:14:15;8.00;99.90
27890;DHT22;15238;49.082;9.102;2023-12-14T09:16:16;8.00;99.90
27890;DHT22;15238;49.082;9.102;2023-12-14T09:18:17;8.00;99.90
27890;DHT22;15238;49.082;9.102;2023-12-14T09:20:18;8.00;99.90
27890;DHT22;15238;49.082;9.102;2023-12-14T09:22:20;8.00;99.90
27890;DHT22;15238;49.082;9.102;2023-12-14T09:24:20;8.00;99.90
27890;DHT22;15238;49.082;9.102;2023-12-14T09:26:21;8.00;99.90
27890;DHT22;15238;49.082;9.102;2023-12-14T09:28:21;8.00;99.90
27890;DHT22;15238;49.082;9.102;2023-12-14T09:30:22;8.00;99.90
27890;DHT22;15238;49.082;9.102;2023-12-14T09:32:22;8.10;99.90
27890;DHT22;15238;49.082;9.102;2023-12-14T09:34:23;8.10;99.90
27890;DHT22;15238;49.082;9.102;2023-12-14T09:36:24;8.10;99.90
27890;DHT22;15238;49.082;9.102;2023-12-14T09:38:25;8.10;99.90
27890;DHT22;15238;49.082;9.102;2023-12-14T09:40:25;8.10;99.90
27890;DHT22;15238;49.082;9.102;2023-12-14T09:42:26;8.10;99.90
27890;DHT22;15238;49.082;9.102;2023-12-14T09:44:26;8.00;99.90
27890;DHT22;15238;49.082;9.102;2023-12-14T09:46:27;8.10;99.90
27890;DHT22;15238;49.082;9.102;2023-12-14T09:48:28;8.10;99.90
27890;DHT22;15238;49.082;9.102;2023-12-14T09:50:30;8.00;99.90
27890;DHT22;15238;49.082;9.102;2023-12-14T09:52:31;8.00;99.90
27890;DHT22;15238;49.082;9.102;2023-12-14T09:54:33;8.00;99.90
27890;DHT22;15238;49.082;9.102;2023-12-14T09:56:34;8.00;99.90
27890;DHT22;15238;49.082;9.102;2023-12-14T09:58:35;8.00;99.90
27890;DHT22;15238;49.082;9.102;2023-12-14T10:00:40;8.00;99.90
27890;DHT22;15238;49.082;9.102;2023-12-14T10:02:41;8.00;99.90
27890;DHT22;15238;49.082;9.102;2023-12-14T10:04:43;8.00;99.90
27890;DHT22;15238;49.082;9.102;2023-12-14T10:06:46;8.00;99.90
27890;DHT22;15238;49.082;9.102;2023-12-14T10:08:54;8.00;99.90
27890;DHT22;15238;49.082;9.102;2023-12-14T10:10:56;8.00;99.90
27890;DHT22;15238;49.082;9.102;2023-12-14T10:12:57;8.00;99.90
27890;DHT22;15238;49.082;9.102;2023-12-14T10:15:01;8.00;99.90
27890;DHT22;15238;49.082;9.102;2023-12-14T10:17:18;8.00;99.90
27890;DHT22;15238;49.082;9.102;2023-12-14T10:19:19;8.10;99.90
27890;DHT22;15238;49.082;9.102;2023-12-14T10:21:20;8.10;99.90
27890;DHT22;15238;49.082;9.102;2023-12-14T10:23:21;8.10;99.90
27890;DHT22;15238;49.082;9.102;2023-12-14T10:25:22;8.20;99.90
27890;DHT22;15238;49.082;9.102;2023-12-14T10:27:22;8.20;99.90
27890;DHT22;15238;49.082;9.102;2023-12-14T10:29:23;8.30;99.90
27890;DHT22;15238;49.082;9.102;2023-12-14T10:31:24;8.30;99.90
27890;DHT22;15238;49.082;9.102;2023-12-14T10:33:26;8.30;99.90
27890;DHT22;15238;49.082;9.102;2023-12-14T10:35:26;8.40;99.90
27890;DHT22;15238;49.082;9.102;2023-12-14T10:37:28;8.40;99.90
27890;DHT22;15238;49.082;9.102;2023-12-14T10:39:29;8.30;99.90
27890;DHT22;15238;49.082;9.102;2023-12-14T10:41:31;8.30;99.90
27890;DHT22;15238;49.082;9.102;2023-12-14T10:43:36;8.40;99.90
27890;DHT22;15238;49.082;9.102;2023-12-14T10:45:36;8.30;99.90
27890;DHT22;15238;49.082;9.102;2023-12-14T10:47:44;8.40;99.90
27890;DHT22;15238;49.082;9.102;2023-12-14T10:49:50;8.40;99.90
27890;DHT22;15238;49.082;9.102;2023-12-14T10:51:53;8.40;99.90
27890;DHT22;15238;49.082;9.102;2023-12-14T10:53:55;8.50;99.90
27890;DHT22;15238;49.082;9.102;2023-12-14T10:55:59;8.60;99.90
27890;DHT22;15238;49.082;9.102;2023-12-14T10:58:02;8.50;99.90
27890;DHT22;15238;49.082;9.102;2023-12-14T11:00:03;8.50;99.90
27890;DHT22;15238;49.082;9.102;2023-12-14T11:02:11;8.40;99.90
27890;DHT22;15238;49.082;9.102;2023-12-14T11:04:12;8.40;99.90
27890;DHT22;15238;49.082;9.102;2023-12-14T11:08:24;8.40;99.90
27890;DHT22;15238;49.082;9.102;2023-12-14T11:10:27;8.50;99.90
27890;DHT22;15238;49.082;9.102;2023-12-14T11:12:28;8.50;99.90
27890;DHT22;15238;49.082;9.102;2023-12-14T11:14:28;8.50;99.90
27890;DHT22;15238;49.082;9.102;2023-12-14T11:16:29;8.60;99.90
27890;DHT22;15238;49.082;9.102;2023-12-14T11:18:30;8.60;99.90
27890;DHT22;15238;49.082;9.102;2023-12-14T11:20:39;8.60;99.90
27890;DHT22;15238;49.082;9.102;2023-12-14T11:22:47;8.60;99.90
27890;DHT22;15238;49.082;9.102;2023-12-14T11:24:51;8.60;99.90
27890;DHT22;15238;49.082;9.102;2023-12-14T11:26:54;8.60;99.90
27890;DHT22;15238;49.082;9.102;2023-12-14T11:28:55;8.60;99.90
27890;DHT22;15238;49.082;9.102;2023-12-14T11:30:56;8.50;99.90
27890;DHT22;15238;49.082;9.102;2023-12-14T11:32:57;8.60;99.90
27890;DHT22;15238;49.082;9.102;2023-12-14T11:34:58;8.60;99.90
27890;DHT22;15238;49.082;9.102;2023-12-14T11:36:58;8.60;99.90
27890;DHT22;15238;49.082;9.102;2023-12-14T11:38:59;8.60;99.90
27890;DHT22;15238;49.082;9.102;2023-12-14T11:40:59;8.60;99.90
27890;DHT22;15238;49.082;9.102;2023-12-14T11:43:04;8.70;99.90
27890;DHT22;15238;49.082;9.102;2023-12-14T11:45:08;8.70;99.90
27890;DHT22;15238;49.082;9.102;2023-12-14T11:47:08;8.70;99.90
27890;DHT22;15238;49.082;9.102;2023-12-14T11:49:09;8.80;99.90
27890;DHT22;15238;49.082;9.102;2023-12-14T11:51:10;8.80;99.90
27890;DHT22;15238;49.082;9.102;2023-12-14T11:53:10;8.80;99.90
27890;DHT22;15238;49.082;9.102;2023-12-14T11:55:11;8.80;99.90
27890;DHT22;15238;49.082;9.102;2023-12-14T11:57:12;8.90;99.90
27890;DHT22;15238;49.082;9.102;2023-12-14T11:59:14;8.90;99.90
27890;DHT22;15238;49.082;9.102;2023-12-14T12:01:18;8.90;99.90
27890;DHT22;15238;49.082;9.102;2023-12-14T12:03:20;8.90;99.90
27890;DHT22;15238;49.082;9.102;2023-12-14T12:05:35;8.90;99.90
27890;DHT22;15238;49.082;9.102;2023-12-14T12:07:36;9.00;99.90
27890;DHT22;15238;49.082;9.102;2023-12-14T12:09:41;8.90;99.90
27890;DHT22;15238;49.082;9.102;2023-12-14T12:11:42;8.90;99.90
27890;DHT22;15238;49.082;9.102;2023-12-14T12:13:42;8.90;99.90
27890;DHT22;15238;49.082;9.102;2023-12-14T12:15:43;8.90;99.90
27890;DHT22;15238;49.082;9.102;2023-12-14T12:17:43;8.90;99.90
27890;DHT22;15238;49.082;9.102;2023-12-14T12:19:45;8.90;99.90
27890;DHT22;15238;49.082;9.102;2023-12-14T12:21:46;8.80;99.90
27890;DHT22;15238;49.082;9.102;2023-12-14T12:23:46;8.90;99.90
27890;DHT22;15238;49.082;9.102;2023-12-14T12:25:47;8.80;99.90
27890;DHT22;15238;49.082;9.102;2023-12-14T12:27:47;8.60;99.90
27890;DHT22;15238;49.082;9.102;2023-12-14T12:29:48;8.50;99.90
27890;DHT22;15238;49.082;9.102;2023-12-14T12:31:49;8.20;99.90
27890;DHT22;15238;49.082;9.102;2023-12-14T12:33:49;8.00;99.90
27890;DHT22;15238;49.082;9.102;2023-12-14T12:35:50;7.80;99.90
27890;DHT22;15238;49.082;9.102;2023-12-14T12:37:51;7.70;99.90
27890;DHT22;15238;49.082;9.102;2023-12-14T12:39:54;7.70;99.90
27890;DHT22;15238;49.082;9.102;2023-12-14T12:41:54;7.70;99.90
27890;DHT22;15238;49.082;9.102;2023-12-14T12:43:55;7.70;99.90
27890;DHT22;15238;49.082;9.102;2023-12-14T12:45:55;7.70;99.90
27890;DHT22;15238;49.082;9.102;2023-12-14T12:47:57;7.70;99.90
27890;DHT22;15238;49.082;9.102;2023-12-14T12:49:58;7.70;99.90
27890;DHT22;15238;49.082;9.102;2023-12-14T12:51:58;7.70;99.90
27890;DHT22;15238;49.082;9.102;2023-12-14T12:53:59;7.60;99.90
27890;DHT22;15238;49.082;9.102;2023-12-14T12:56:00;7.60;99.90
27890;DHT22;15238;49.082;9.102;2023-12-14T12:58:00;7.60;99.90